< < Back
Terminal Aerodrome Forecast


Current Version              Previous Versions:   1  2  3  4  5  6  7  8  9  

Terminal Aerodrome Forecast

609
FTUS42 KILM 290522
TAFILM
TAF
KILM 290522Z 2906/3006 22007KT P6SM SKC
     FM291500 24011KT P6SM SCT250
     FM300000 22007KT P6SM BKN250=

Latest METAR

836
SAUS70 KWBC 300300 RRJ
MTRILM
METAR KILM 300253Z AUTO 21005KT 10SM CLR 28/26 A2996 RMK AO2 SLP145
T02830256 51018 PWINO


USA.gov is the U.S. government's official web portal to all federal, state and local government web resources and services.